sensor_id;sensor_type;location;lat;lon;timestamp;pressure;altitude;pressure_sealevel;temperature;humidity
74936;BME280;63501;55.570;37.488;2023-04-24T00:00:37;99051.72;;;11.20;39.36
74936;BME280;63501;55.570;37.488;2023-04-24T00:03:06;99060.44;;;11.18;38.42
74936;BME280;63501;55.570;37.488;2023-04-24T00:05:34;99058.88;;;11.13;39.27
74936;BME280;63501;55.570;37.488;2023-04-24T00:08:01;99052.19;;;11.07;39.39
74936;BME280;63501;55.570;37.488;2023-04-24T00:10:29;99059.72;;;11.03;39.22
74936;BME280;63501;55.570;37.488;2023-04-24T00:12:56;99058.16;;;10.99;39.66
74936;BME280;63501;55.570;37.488;2023-04-24T00:15:23;99057.78;;;10.97;39.58
74936;BME280;63501;55.570;37.488;2023-04-24T00:17:50;99055.81;;;10.94;39.60
74936;BME280;63501;55.570;37.488;2023-04-24T00:20:19;99056.63;;;10.91;39.24
74936;BME280;63501;55.570;37.488;2023-04-24T00:22:48;99051.88;;;10.88;39.10
74936;BME280;63501;55.570;37.488;2023-04-24T00:25:15;99064.56;;;10.85;39.69
74936;BME280;63501;55.570;37.488;2023-04-24T00:27:42;99049.16;;;10.80;39.95
74936;BME280;63501;55.570;37.488;2023-04-24T00:30:10;99051.16;;;10.76;39.85
74936;BME280;63501;55.570;37.488;2023-04-24T00:32:37;99054.31;;;10.75;39.75
74936;BME280;63501;55.570;37.488;2023-04-24T00:35:05;99049.59;;;10.72;39.59
74936;BME280;63501;55.570;37.488;2023-04-24T00:37:32;99055.16;;;10.68;39.76
74936;BME280;63501;55.570;37.488;2023-04-24T00:40:01;99058.31;;;10.67;40.14
74936;BME280;63501;55.570;37.488;2023-04-24T00:42:28;99060.72;;;10.61;39.72
74936;BME280;63501;55.570;37.488;2023-04-24T00:44:56;99058.34;;;10.56;39.91
74936;BME280;63501;55.570;37.488;2023-04-24T00:47:23;99052.03;;;10.52;40.40
74936;BME280;63501;55.570;37.488;2023-04-24T00:49:52;99057.56;;;10.48;40.03
74936;BME280;63501;55.570;37.488;2023-04-24T00:52:19;99056.03;;;10.44;40.11
74936;BME280;63501;55.570;37.488;2023-04-24T00:54:46;99052.50;;;10.40;40.61
74936;BME280;63501;55.570;37.488;2023-04-24T00:57:14;99052.09;;;10.38;40.12
74936;BME280;63501;55.570;37.488;2023-04-24T00:59:42;99061.56;;;10.37;40.83
74936;BME280;63501;55.570;37.488;2023-04-24T01:02:09;99049.75;;;10.32;40.73
74936;BME280;63501;55.570;37.488;2023-04-24T01:04:37;99047.78;;;10.29;40.13
74936;BME280;63501;55.570;37.488;2023-04-24T01:07:04;99052.91;;;10.27;40.20
74936;BME280;63501;55.570;37.488;2023-04-24T01:09:36;99052.13;;;10.27;40.97
74936;BME280;63501;55.570;37.488;2023-04-24T01:12:03;99050.16;;;10.24;40.57
74936;BME280;63501;55.570;37.488;2023-04-24T01:14:33;99051.31;;;10.23;40.37
74936;BME280;63501;55.570;37.488;2023-04-24T01:17:00;99050.91;;;10.21;40.66
74936;BME280;63501;55.570;37.488;2023-04-24T01:19:27;99052.50;;;10.18;40.86
74936;BME280;63501;55.570;37.488;2023-04-24T01:21:58;99042.25;;;10.15;41.07
74936;BME280;63501;55.570;37.488;2023-04-24T01:24:26;99040.66;;;10.14;41.03
74936;BME280;63501;55.570;37.488;2023-04-24T01:26:54;99041.84;;;10.13;41.29
74936;BME280;63501;55.570;37.488;2023-04-24T01:29:21;99040.69;;;10.11;41.39
74936;BME280;63501;55.570;37.488;2023-04-24T01:31:48;99039.50;;;10.08;40.77
74936;BME280;63501;55.570;37.488;2023-04-24T01:34:15;99041.09;;;10.05;41.23
74936;BME280;63501;55.570;37.488;2023-04-24T01:36:43;99040.69;;;10.03;41.42
74936;BME280;63501;55.570;37.488;2023-04-24T01:39:12;99034.78;;;10.01;41.35
74936;BME280;63501;55.570;37.488;2023-04-24T01:41:42;99037.94;;;10.00;40.79
74936;BME280;63501;55.570;37.488;2023-04-24T01:44:09;99036.75;;;9.97;41.49
74936;BME280;63501;55.570;37.488;2023-04-24T01:46:37;99039.94;;;9.96;41.02
74936;BME280;63501;55.570;37.488;2023-04-24T01:49:04;99036.38;;;9.95;40.88
74936;BME280;63501;55.570;37.488;2023-04-24T01:51:32;99037.16;;;9.92;41.66
74936;BME280;63501;55.570;37.488;2023-04-24T01:53:59;99042.31;;;9.90;41.01
74936;BME280;63501;55.570;37.488;2023-04-24T01:56:29;99039.16;;;9.88;41.74
74936;BME280;63501;55.570;37.488;2023-04-24T01:58:58;99035.59;;;9.88;41.23
74936;BME280;63501;55.570;37.488;2023-04-24T02:01:25;99034.00;;;9.87;40.95
74936;BME280;63501;55.570;37.488;2023-04-24T02:03:52;99040.31;;;9.87;41.02
74936;BME280;63501;55.570;37.488;2023-04-24T02:06:19;99037.56;;;9.87;40.91
74936;BME280;63501;55.570;37.488;2023-04-24T02:08:46;99041.91;;;9.85;41.00
74936;BME280;63501;55.570;37.488;2023-04-24T02:11:13;99034.81;;;9.84;40.93
74936;BME280;63501;55.570;37.488;2023-04-24T02:13:40;99038.78;;;9.83;41.27
74936;BME280;63501;55.570;37.488;2023-04-24T02:16:11;99046.63;;;9.80;41.34
74936;BME280;63501;55.570;37.488;2023-04-24T02:18:58;99043.50;;;9.78;41.09
74936;BME280;63501;55.570;37.488;2023-04-24T02:21:25;99041.94;;;9.77;41.18
74936;BME280;63501;55.570;37.488;2023-04-24T02:23:53;99045.47;;;9.74;41.58
74936;BME280;63501;55.570;37.488;2023-04-24T02:26:20;99034.81;;;9.73;41.18
74936;BME280;63501;55.570;37.488;2023-04-24T02:28:48;99046.66;;;9.73;41.79
74936;BME280;63501;55.570;37.488;2023-04-24T02:31:17;99056.91;;;9.73;41.37
74936;BME280;63501;55.570;37.488;2023-04-24T02:33:44;99042.69;;;9.74;41.21
74936;BME280;63501;55.570;37.488;2023-04-24T02:36:11;99047.03;;;9.75;41.59
74936;BME280;63501;55.570;37.488;2023-04-24T02:38:38;99056.91;;;9.76;41.53
74936;BME280;63501;55.570;37.488;2023-04-24T02:41:05;99047.03;;;9.75;42.04
74936;BME280;63501;55.570;37.488;2023-04-24T02:43:33;99053.34;;;9.76;41.36
74936;BME280;63501;55.570;37.488;2023-04-24T02:46:00;99057.72;;;9.77;41.97
74936;BME280;63501;55.570;37.488;2023-04-24T02:48:28;99049.81;;;9.79;41.41
74936;BME280;63501;55.570;37.488;2023-04-24T02:50:55;99059.25;;;9.81;41.74
74936;BME280;63501;55.570;37.488;2023-04-24T02:53:23;99052.97;;;9.85;41.06
74936;BME280;63501;55.570;37.488;2023-04-24T02:55:50;99062.03;;;9.89;41.76
74936;BME280;63501;55.570;37.488;2023-04-24T02:58:17;99062.41;;;9.91;41.27
74936;BME280;63501;55.570;37.488;2023-04-24T03:00:45;99063.22;;;9.95;41.74
74936;BME280;63501;55.570;37.488;2023-04-24T03:03:12;99073.06;;;9.99;41.54
74936;BME280;63501;55.570;37.488;2023-04-24T03:05:41;99057.66;;;10.02;41.49
74936;BME280;63501;55.570;37.488;2023-04-24T03:08:08;99063.97;;;10.06;40.84
74936;BME280;63501;55.570;37.488;2023-04-24T03:10:37;99067.13;;;10.12;40.87
74936;BME280;63501;55.570;37.488;2023-04-24T03:13:04;99062.00;;;10.17;41.19
74936;BME280;63501;55.570;37.488;2023-04-24T03:15:31;99063.56;;;10.22;41.00
74936;BME280;63501;55.570;37.488;2023-04-24T03:17:58;99067.13;;;10.26;40.77
74936;BME280;63501;55.570;37.488;2023-04-24T03:20:25;99069.50;;;10.27;40.65
74936;BME280;63501;55.570;37.488;2023-04-24T03:22:54;99063.56;;;10.32;40.51
74936;BME280;63501;55.570;37.488;2023-04-24T03:25:22;99064.72;;;10.39;40.92
74936;BME280;63501;55.570;37.488;2023-04-24T03:27:49;99067.47;;;10.42;40.67
74936;BME280;63501;55.570;37.488;2023-04-24T03:30:16;99064.28;;;10.47;40.57
74936;BME280;63501;55.570;37.488;2023-04-24T03:32:43;99066.66;;;10.52;40.85
74936;BME280;63501;55.570;37.488;2023-04-24T03:35:10;99069.00;;;10.54;40.33
74936;BME280;63501;55.570;37.488;2023-04-24T03:37:37;99060.72;;;10.54;40.75
74936;BME280;63501;55.570;37.488;2023-04-24T03:40:08;99072.56;;;10.58;40.91
74936;BME280;63501;55.570;37.488;2023-04-24T03:42:35;99074.50;;;10.65;40.47
74936;BME280;63501;55.570;37.488;2023-04-24T03:45:03;99073.31;;;10.69;40.49
74936;BME280;63501;55.570;37.488;2023-04-24T03:47:30;99065.78;;;10.73;40.34
74936;BME280;63501;55.570;37.488;2023-04-24T03:49:58;99069.72;;;10.76;40.62
74936;BME280;63501;55.570;37.488;2023-04-24T03:52:25;99073.25;;;10.80;40.22
74936;BME280;63501;55.570;37.488;2023-04-24T03:54:52;99069.31;;;10.84;40.57
74936;BME280;63501;55.570;37.488;2023-04-24T03:57:20;99078.34;;;10.89;40.57
74936;BME280;63501;55.570;37.488;2023-04-24T03:59:47;99077.56;;;10.92;40.21
74936;BME280;63501;55.570;37.488;2023-04-24T04:02:14;99084.25;;;10.98;40.25
74936;BME280;63501;55.570;37.488;2023-04-24T04:04:42;99081.84;;;11.00;39.98
74936;BME280;63501;55.570;37.488;2023-04-24T04:07:10;99090.16;;;11.00;40.37
74936;BME280;63501;55.570;37.488;2023-04-24T04:09:38;99087.78;;;11.02;40.21
74936;BME280;63501;55.570;37.488;2023-04-24T04:12:05;99084.59;;;11.07;40.10
74936;BME280;63501;55.570;37.488;2023-04-24T04:14:34;99081.78;;;11.10;39.47
74936;BME280;63501;55.570;37.488;2023-04-24T04:17:01;99085.72;;;11.17;39.36
74936;BME280;63501;55.570;37.488;2023-04-24T04:19:28;99091.22;;;11.20;39.75
74936;BME280;63501;55.570;37.488;2023-04-24T04:21:55;99096.75;;;11.24;38.99
74936;BME280;63501;55.570;37.488;2023-04-24T04:24:23;99095.16;;;11.26;39.59
74936;BME280;63501;55.570;37.488;2023-04-24T04:26:52;99091.19;;;11.31;39.66
74936;BME280;63501;55.570;37.488;2023-04-24T04:29:22;99098.22;;;11.39;39.73
74936;BME280;63501;55.570;37.488;2023-04-24T04:31:51;99098.59;;;11.45;39.66
74936;BME280;63501;55.570;37.488;2023-04-24T04:34:18;99091.06;;;11.49;39.32
74936;BME280;63501;55.570;37.488;2023-04-24T04:36:46;99098.53;;;11.55;39.89
74936;BME280;63501;55.570;37.488;2023-04-24T04:39:13;99101.28;;;11.59;39.50
74936;BME280;63501;55.570;37.488;2023-04-24T04:41:42;99102.03;;;11.63;39.36
74936;BME280;63501;55.570;37.488;2023-04-24T04:44:09;99096.44;;;11.70;39.66
74936;BME280;63501;55.570;37.488;2023-04-24T04:46:36;99095.59;;;11.77;39.78
74936;BME280;63501;55.570;37.488;2023-04-24T04:49:05;99094.41;;;11.81;39.50
74936;BME280;63501;55.570;37.488;2023-04-24T04:51:34;99101.09;;;11.87;39.49
74936;BME280;63501;55.570;37.488;2023-04-24T04:54:02;99102.63;;;11.96;39.20
74936;BME280;63501;55.570;37.488;2023-04-24T04:56:29;99110.03;;;12.06;39.27
74936;BME280;63501;55.570;37.488;2023-04-24T04:58:56;99104.44;;;12.13;39.32
74936;BME280;63501;55.570;37.488;2023-04-24T05:01:24;99104.00;;;12.18;39.09
74936;BME280;63501;55.570;37.488;2023-04-24T05:03:53;99105.94;;;12.17;39.58
74936;BME280;63501;55.570;37.488;2023-04-24T05:06:21;99099.59;;;12.21;38.89
74936;BME280;63501;55.570;37.488;2023-04-24T05:08:48;99110.69;;;12.21;38.93
74936;BME280;63501;55.570;37.488;2023-04-24T05:11:16;99111.41;;;12.28;39.29
74936;BME280;63501;55.570;37.488;2023-04-24T05:13:44;99103.84;;;12.32;39.20
74936;BME280;63501;55.570;37.488;2023-04-24T05:16:11;99108.50;;;12.42;38.82
74936;BME280;63501;55.570;37.488;2023-04-24T05:18:38;99100.50;;;12.52;38.64
74936;BME280;63501;55.570;37.488;2023-04-24T05:21:07;99100.75;;;12.61;38.74
74936;BME280;63501;55.570;37.488;2023-04-24T05:23:38;99108.19;;;12.71;38.27
74936;BME280;63501;55.570;37.488;2023-04-24T05:26:06;99107.28;;;12.81;38.96
74936;BME280;63501;55.570;37.488;2023-04-24T05:28:33;99107.97;;;12.89;38.97
74936;BME280;63501;55.570;37.488;2023-04-24T05:31:02;99108.28;;;12.94;38.81
74936;BME280;63501;55.570;37.488;2023-04-24T05:33:29;99109.41;;;13.01;38.37
74936;BME280;63501;55.570;37.488;2023-04-24T05:35:56;99103.78;;;13.08;38.50
74936;BME280;63501;55.570;37.488;2023-04-24T05:38:23;99106.81;;;13.17;38.48
74936;BME280;63501;55.570;37.488;2023-04-24T05:40:56;99094.81;;;13.27;38.32
74936;BME280;63501;55.570;37.488;2023-04-24T05:43:25;99097.00;;;13.39;38.59
74936;BME280;63501;55.570;37.488;2023-04-24T05:45:55;99096.03;;;13.53;37.95
74936;BME280;63501;55.570;37.488;2023-04-24T05:48:24;99096.59;;;13.68;38.60
74936;BME280;63501;55.570;37.488;2023-04-24T05:50:52;99089.72;;;13.76;38.67
74936;BME280;63501;55.570;37.488;2023-04-24T05:53:20;99088.78;;;13.86;37.92
74936;BME280;63501;55.570;37.488;2023-04-24T05:55:47;99090.69;;;13.89;38.06
74936;BME280;63501;55.570;37.488;2023-04-24T05:58:16;99088.56;;;13.97;37.99
74936;BME280;63501;55.570;37.488;2023-04-24T06:00:45;99087.25;;;14.05;37.84
74936;BME280;63501;55.570;37.488;2023-04-24T06:03:12;99085.84;;;14.17;37.79
74936;BME280;63501;55.570;37.488;2023-04-24T06:05:41;99089.22;;;14.28;38.29
74936;BME280;63501;55.570;37.488;2023-04-24T06:08:09;99090.66;;;14.36;37.75
74936;BME280;63501;55.570;37.488;2023-04-24T06:10:39;99089.38;;;14.41;38.13
74936;BME280;63501;55.570;37.488;2023-04-24T06:13:07;99082.53;;;14.49;37.68
74936;BME280;63501;55.570;37.488;2023-04-24T06:15:35;99089.44;;;14.61;37.99
74936;BME280;63501;55.570;37.488;2023-04-24T06:18:04;99095.50;;;14.75;37.97
74936;BME280;63501;55.570;37.488;2023-04-24T06:20:32;99084.25;;;14.82;37.43
74936;BME280;63501;55.570;37.488;2023-04-24T06:22:59;99094.38;;;14.93;37.87
74936;BME280;63501;55.570;37.488;2023-04-24T06:25:27;99092.56;;;15.02;38.00
74936;BME280;63501;55.570;37.488;2023-04-24T06:27:54;99094.00;;;15.11;37.48
74936;BME280;63501;55.570;37.488;2023-04-24T06:30:22;99094.78;;;15.11;37.75
74936;BME280;63501;55.570;37.488;2023-04-24T06:32:52;99089.94;;;15.15;37.75
74936;BME280;63501;55.570;37.488;2023-04-24T06:35:19;99088.88;;;15.25;37.01
74936;BME280;63501;55.570;37.488;2023-04-24T06:37:46;99090.22;;;15.37;37.18
74936;BME280;63501;55.570;37.488;2023-04-24T06:40:13;99090.84;;;15.45;37.83
74936;BME280;63501;55.570;37.488;2023-04-24T06:42:42;99087.81;;;15.55;37.43
74936;BME280;63501;55.570;37.488;2023-04-24T06:45:09;99087.50;;;15.70;36.99
74936;BME280;63501;55.570;37.488;2023-04-24T06:47:37;99086.81;;;15.82;36.90
74936;BME280;63501;55.570;37.488;2023-04-24T06:50:07;99090.47;;;15.95;36.84
74936;BME280;63501;55.570;37.488;2023-04-24T06:52:34;99093.00;;;16.06;36.62
74936;BME280;63501;55.570;37.488;2023-04-24T06:55:05;99084.88;;;16.11;36.46
74936;BME280;63501;55.570;37.488;2023-04-24T06:57:33;99093.59;;;16.13;35.90
74936;BME280;63501;55.570;37.488;2023-04-24T07:00:00;99097.09;;;16.18;35.77
74936;BME280;63501;55.570;37.488;2023-04-24T07:02:29;99101.00;;;16.20;36.53
74936;BME280;63501;55.570;37.488;2023-04-24T07:04:56;99092.09;;;16.25;35.74
74936;BME280;63501;55.570;37.488;2023-04-24T07:07:25;99093.81;;;16.35;35.62
74936;BME280;63501;55.570;37.488;2023-04-24T07:09:53;99087.44;;;16.51;36.15
74936;BME280;63501;55.570;37.488;2023-04-24T07:12:21;99097.41;;;16.65;35.45
74936;BME280;63501;55.570;37.488;2023-04-24T07:14:49;99092.97;;;16.67;35.57
74936;BME280;63501;55.570;37.488;2023-04-24T07:17:17;99095.66;;;16.71;35.28
74936;BME280;63501;55.570;37.488;2023-04-24T07:19:44;99087.88;;;16.79;34.85
74936;BME280;63501;55.570;37.488;2023-04-24T07:22:11;99086.13;;;16.85;33.72
74936;BME280;63501;55.570;37.488;2023-04-24T07:24:43;99096.84;;;16.86;33.58
74936;BME280;63501;55.570;37.488;2023-04-24T07:27:10;99109.72;;;16.97;33.54
74936;BME280;63501;55.570;37.488;2023-04-24T07:29:40;99105.47;;;17.05;32.85
74936;BME280;63501;55.570;37.488;2023-04-24T07:32:07;99081.47;;;17.07;33.09
74936;BME280;63501;55.570;37.488;2023-04-24T07:34:34;99083.28;;;17.14;33.04
74936;BME280;63501;55.570;37.488;2023-04-24T07:37:03;99087.94;;;17.17;32.84
74936;BME280;63501;55.570;37.488;2023-04-24T07:39:31;99084.50;;;17.26;32.22
74936;BME280;63501;55.570;37.488;2023-04-24T07:41:59;99080.38;;;17.43;32.95
74936;BME280;63501;55.570;37.488;2023-04-24T07:44:27;99082.75;;;17.57;31.94
74936;BME280;63501;55.570;37.488;2023-04-24T07:46:54;99081.84;;;17.60;31.53
74936;BME280;63501;55.570;37.488;2023-04-24T07:49:22;99084.75;;;17.69;31.77
74936;BME280;63501;55.570;37.488;2023-04-24T07:51:50;99072.47;;;17.80;31.57
74936;BME280;63501;55.570;37.488;2023-04-24T07:54:17;99072.66;;;17.98;30.56
74936;BME280;63501;55.570;37.488;2023-04-24T07:56:44;99084.28;;;18.09;30.14
74936;BME280;63501;55.570;37.488;2023-04-24T07:59:13;99072.56;;;18.23;29.89
74936;BME280;63501;55.570;37.488;2023-04-24T08:01:40;99075.78;;;18.35;29.70
74936;BME280;63501;55.570;37.488;2023-04-24T08:04:07;99065.31;;;18.26;29.30
74936;BME280;63501;55.570;37.488;2023-04-24T08:06:38;99066.19;;;18.23;29.16
74936;BME280;63501;55.570;37.488;2023-04-24T08:09:07;99064.56;;;18.47;29.03
74936;BME280;63501;55.570;37.488;2023-04-24T08:11:35;99061.03;;;18.69;28.59
74936;BME280;63501;55.570;37.488;2023-04-24T08:14:02;99048.28;;;18.99;28.73
74936;BME280;63501;55.570;37.488;2023-04-24T08:16:32;99043.44;;;19.21;28.38
74936;BME280;63501;55.570;37.488;2023-04-24T08:18:59;99046.91;;;19.35;28.21
74936;BME280;63501;55.570;37.488;2023-04-24T08:21:29;99062.28;;;19.30;27.97
74936;BME280;63501;55.570;37.488;2023-04-24T08:23:57;99059.00;;;19.22;27.77
74936;BME280;63501;55.570;37.488;2023-04-24T08:26:24;99049.63;;;19.16;27.71
74936;BME280;63501;55.570;37.488;2023-04-24T08:28:52;99055.34;;;19.13;27.77
74936;BME280;63501;55.570;37.488;2023-04-24T08:31:19;99051.53;;;19.19;27.60
74936;BME280;63501;55.570;37.488;2023-04-24T08:33:47;99054.50;;;19.25;27.42
74936;BME280;63501;55.570;37.488;2023-04-24T08:36:15;99050.59;;;19.22;27.19
74936;BME280;63501;55.570;37.488;2023-04-24T08:38:44;99039.25;;;19.26;27.39
74936;BME280;63501;55.570;37.488;2023-04-24T08:41:15;99046.91;;;19.35;27.61
74936;BME280;63501;55.570;37.488;2023-04-24T08:43:43;99064.28;;;19.20;27.24
74936;BME280;63501;55.570;37.488;2023-04-24T08:46:10;99052.66;;;19.00;27.27
74936;BME280;63501;55.570;37.488;2023-04-24T08:48:39;99049.56;;;19.07;27.15
74936;BME280;63501;55.570;37.488;2023-04-24T08:51:08;99026.84;;;19.36;26.84
74936;BME280;63501;55.570;37.488;2023-04-24T08:53:36;99031.53;;;19.89;26.75
74936;BME280;63501;55.570;37.488;2023-04-24T08:56:09;99035.25;;;20.96;25.38
74936;BME280;63501;55.570;37.488;2023-04-24T08:58:38;99012.53;;;22.08;24.63
74936;BME280;63501;55.570;37.488;2023-04-24T09:01:05;99012.00;;;22.72;24.55
74936;BME280;63501;55.570;37.488;2023-04-24T09:03:36;99002.41;;;23.58;23.60
74936;BME280;63501;55.570;37.488;2023-04-24T09:06:12;98986.81;;;24.65;23.24
74936;BME280;63501;55.570;37.488;2023-04-24T09:08:41;98982.94;;;25.63;22.44
74936;BME280;63501;55.570;37.488;2023-04-24T09:11:11;98982.06;;;26.53;21.98
74936;BME280;63501;55.570;37.488;2023-04-24T09:13:41;98988.31;;;27.25;21.53
74936;BME280;63501;55.570;37.488;2023-04-24T09:16:08;98983.91;;;27.40;20.92
74936;BME280;63501;55.570;37.488;2023-04-24T09:18:36;98973.53;;;27.60;20.50
74936;BME280;63501;55.570;37.488;2023-04-24T09:21:07;98963.19;;;27.85;20.41
74936;BME280;63501;55.570;37.488;2023-04-24T09:23:36;98965.56;;;28.22;20.07
74936;BME280;63501;55.570;37.488;2023-04-24T09:26:06;98961.72;;;28.66;19.58
74936;BME280;63501;55.570;37.488;2023-04-24T09:28:37;98972.91;;;28.94;19.32
74936;BME280;63501;55.570;37.488;2023-04-24T09:31:06;98975.41;;;27.35;19.76
74936;BME280;63501;55.570;37.488;2023-04-24T09:33:34;98981.09;;;27.18;19.79
74936;BME280;63501;55.570;37.488;2023-04-24T09:36:01;98963.59;;;28.06;19.77
74936;BME280;63501;55.570;37.488;2023-04-24T09:38:32;98966.44;;;28.58;19.05
74936;BME280;63501;55.570;37.488;2023-04-24T09:41:02;98962.59;;;29.21;18.67
74936;BME280;63501;55.570;37.488;2023-04-24T09:43:33;98945.28;;;29.68;18.96
74936;BME280;63501;55.570;37.488;2023-04-24T09:46:07;98938.97;;;30.19;18.10
74936;BME280;63501;55.570;37.488;2023-04-24T09:48:37;98944.66;;;29.02;18.59
74936;BME280;63501;55.570;37.488;2023-04-24T09:51:05;98962.22;;;27.37;19.75
74936;BME280;63501;55.570;37.488;2023-04-24T09:53:36;98957.06;;;27.47;19.57
74936;BME280;63501;55.570;37.488;2023-04-24T09:56:09;98943.19;;;28.54;18.54
74936;BME280;63501;55.570;37.488;2023-04-24T09:58:39;98941.72;;;29.38;18.22
74936;BME280;63501;55.570;37.488;2023-04-24T10:01:07;98958.97;;;29.75;18.05
74936;BME280;63501;55.570;37.488;2023-04-24T10:03:34;98945.34;;;29.38;18.17
74936;BME280;63501;55.570;37.488;2023-04-24T10:06:02;98935.06;;;29.78;18.07
74936;BME280;63501;55.570;37.488;2023-04-24T10:08:35;98938.38;;;29.34;18.20
74936;BME280;63501;55.570;37.488;2023-04-24T10:11:03;98947.91;;;29.12;18.27
74936;BME280;63501;55.570;37.488;2023-04-24T10:13:32;98936.59;;;29.80;17.80
74936;BME280;63501;55.570;37.488;2023-04-24T10:16:00;98927.09;;;30.71;17.20
74936;BME280;63501;55.570;37.488;2023-04-24T10:18:27;98923.63;;;31.50;17.01
74936;BME280;63501;55.570;37.488;2023-04-24T10:20:56;98918.03;;;31.84;16.53
74936;BME280;63501;55.570;37.488;2023-04-24T10:23:25;98921.97;;;31.68;16.33
74936;BME280;63501;55.570;37.488;2023-04-24T10:25:53;98916.47;;;31.97;16.42
74936;BME280;63501;55.570;37.488;2023-04-24T10:28:21;98917.69;;;31.75;16.12
74936;BME280;63501;55.570;37.488;2023-04-24T10:30:51;98914.50;;;31.65;15.82
74936;BME280;63501;55.570;37.488;2023-04-24T10:33:26;98906.38;;;31.69;16.13
74936;BME280;63501;55.570;37.488;2023-04-24T10:35:53;98900.69;;;31.82;16.19
74936;BME280;63501;55.570;37.488;2023-04-24T10:38:24;98910.47;;;32.21;16.01
74936;BME280;63501;55.570;37.488;2023-04-24T10:40:57;98907.97;;;32.18;15.80
74936;BME280;63501;55.570;37.488;2023-04-24T10:43:24;98919.91;;;32.29;15.81
74936;BME280;63501;55.570;37.488;2023-04-24T10:46:01;98911.03;;;32.20;15.93
74936;BME280;63501;55.570;37.488;2023-04-24T10:48:29;98922.09;;;31.89;16.13
74936;BME280;63501;55.570;37.488;2023-04-24T10:50:56;98908.34;;;32.01;15.69
74936;BME280;63501;55.570;37.488;2023-04-24T10:53:23;98910.59;;;32.16;15.94
74936;BME280;63501;55.570;37.488;2023-04-24T10:55:58;98921.78;;;30.43;16.45
74936;BME280;63501;55.570;37.488;2023-04-24T10:58:36;98929.16;;;28.62;17.27
74936;BME280;63501;55.570;37.488;2023-04-24T11:01:08;98932.78;;;27.57;18.08
74936;BME280;63501;55.570;37.488;2023-04-24T11:03:35;98913.16;;;28.17;18.00
74936;BME280;63501;55.570;37.488;2023-04-24T11:06:04;98910.25;;;28.34;17.72
74936;BME280;63501;55.570;37.488;2023-04-24T11:08:40;98900.84;;;29.11;17.16
74936;BME280;63501;55.570;37.488;2023-04-24T11:11:11;98907.38;;;28.70;17.33
74936;BME280;63501;55.570;37.488;2023-04-24T11:14:01;98900.66;;;28.32;17.58
74936;BME280;63501;55.570;37.488;2023-04-24T11:16:32;98902.00;;;27.78;17.99
74936;BME280;63501;55.570;37.488;2023-04-24T11:19:04;98897.53;;;27.13;18.01
74936;BME280;63501;55.570;37.488;2023-04-24T11:21:44;98891.47;;;28.14;17.83
74936;BME280;63501;55.570;37.488;2023-04-24T11:24:28;98885.56;;;29.82;17.12
74936;BME280;63501;55.570;37.488;2023-04-24T11:26:58;98883.56;;;30.97;16.41
74936;BME280;63501;55.570;37.488;2023-04-24T11:29:41;98864.19;;;31.36;15.80
74936;BME280;63501;55.570;37.488;2023-04-24T11:32:23;98882.84;;;31.37;15.70
74936;BME280;63501;55.570;37.488;2023-04-24T11:34:54;98868.38;;;31.34;15.92
74936;BME280;63501;55.570;37.488;2023-04-24T11:37:23;98858.91;;;31.53;15.92
74936;BME280;63501;55.570;37.488;2023-04-24T11:39:52;98871.22;;;31.48;15.57
74936;BME280;63501;55.570;37.488;2023-04-24T11:42:24;98871.31;;;31.29;15.67
74936;BME280;63501;55.570;37.488;2023-04-24T11:44:53;98850.13;;;31.38;15.36
74936;BME280;63501;55.570;37.488;2023-04-24T11:47:27;98836.28;;;31.55;15.28
74936;BME280;63501;55.570;37.488;2023-04-24T11:49:55;98855.41;;;30.75;15.98
74936;BME280;63501;55.570;37.488;2023-04-24T11:52:22;98852.91;;;30.71;16.29
74936;BME280;63501;55.570;37.488;2023-04-24T11:54:49;98850.97;;;31.19;15.52
74936;BME280;63501;55.570;37.488;2023-04-24T11:57:19;98840.31;;;31.73;15.47
74936;BME280;63501;55.570;37.488;2023-04-24T11:59:47;98839.38;;;32.25;15.28
74936;BME280;63501;55.570;37.488;2023-04-24T12:02:22;98831.34;;;32.58;15.07
74936;BME280;63501;55.570;37.488;2023-04-24T12:04:50;98829.09;;;32.64;14.82
74936;BME280;63501;55.570;37.488;2023-04-24T12:07:18;98818.69;;;32.74;14.98
74936;BME280;63501;55.570;37.488;2023-04-24T12:09:47;98818.00;;;33.10;14.72
74936;BME280;63501;55.570;37.488;2023-04-24T12:12:15;98818.22;;;33.40;14.92
74936;BME280;63501;55.570;37.488;2023-04-24T12:14:47;98812.94;;;33.52;14.59
74936;BME280;63501;55.570;37.488;2023-04-24T12:17:15;98806.19;;;33.86;14.59
74936;BME280;63501;55.570;37.488;2023-04-24T12:19:47;98812.50;;;33.84;14.29
74936;BME280;63501;55.570;37.488;2023-04-24T12:22:16;98803.47;;;33.80;14.46
74936;BME280;63501;55.570;37.488;2023-04-24T12:24:59;98801.56;;;33.75;14.30
74936;BME280;63501;55.570;37.488;2023-04-24T12:27:31;98811.44;;;33.59;14.39
74936;BME280;63501;55.570;37.488;2023-04-24T12:30:01;98827.44;;;33.54;14.35
74936;BME280;63501;55.570;37.488;2023-04-24T12:32:29;98830.25;;;32.27;14.82
74936;BME280;63501;55.570;37.488;2023-04-24T12:34:58;98825.59;;;31.55;14.99
74936;BME280;63501;55.570;37.488;2023-04-24T12:37:26;98832.00;;;31.35;14.90
74936;BME280;63501;55.570;37.488;2023-04-24T12:40:04;98814.75;;;31.27;14.74
74936;BME280;63501;55.570;37.488;2023-04-24T12:42:32;98804.63;;;31.40;14.70
74936;BME280;63501;55.570;37.488;2023-04-24T12:45:02;98818.13;;;31.66;14.71
74936;BME280;63501;55.570;37.488;2023-04-24T12:47:31;98807.69;;;31.55;14.90
74936;BME280;63501;55.570;37.488;2023-04-24T12:50:00;98819.09;;;31.81;14.74
74936;BME280;63501;55.570;37.488;2023-04-24T12:52:29;98803.50;;;31.82;14.60
74936;BME280;63501;55.570;37.488;2023-04-24T12:54:57;98819.31;;;31.70;14.54
74936;BME280;63501;55.570;37.488;2023-04-24T12:57:26;98803.59;;;31.64;14.80